Terminal Aerodrome Forecast
Issued by NWS Denver/Boulder, CO

Home | Current Version | Previous Version | Text Only | Print | Product List | Glossary On
Versions: 1 2 3 4 5 6 7 8 9 10 11 12 13 14 15 16 17 18 19 20 21 22 23 24 25 26 27 28 29 30 31 32 33 34 35 36 37 38 39 40 41 42 43 44 45 46 47 48
000
FTUS45 KBOU 250701 AAA
TAFDEN
TAF AMD
KDEN 250701Z 2507/2612 20010KT P6SM SCT220
     FM251300 VRB06KT P6SM SCT220
     FM251500 15007KT P6SM FEW120 BKN220
     FM252000 15011G18KT P6SM FEW120 BKN220
     FM260200 18012KT P6SM FEW120 SCT220
     FM260500 21012KT P6SM FEW120 SCT220=

USA.gov is the U.S. government's official web portal to all federal, state and local government web resources and services.